Mowersville, Pennsylvania
Current Conditions -  °F | °C
As of 8:53 AM on Friday 19 Dec 2014 (Local Time) from KRYT Reporting Station
Overcast Overcast  
Wind Chill: 29°   Ceiling: 2600
Heat Index: 33°   Visibility: 10mi
Dew Point: 22°   Wind: 5mph
Humidity: 64%   Direction: 350°N
Pressure: 30.11"   Gusts: NA
Location:  40.0414°N, 77.4967°W
Report Text: KRYT 191353Z AUTO 35004KT 10SM OVC026 01/M06 A3011 RMK AO2 SLP211 T00061056 $
Loading
Personal Weather Stations






























Interactive Weather Map New forecast layout! Learn more

10-Day Weather Forecast

Advertisements
Track Severe Weather on mobile